Time;durP1;ratioP1;P1;durP2;ratioP2;P2;SDS_P1;SDS_P2;PMS_P1;PMS_P2;Temp;Humidity;BMP_temperature;BMP_pressure;BME280_temperature;BME280_humidity;BME280_pressure;Samples;Min_cycle;Max_cycle;Signal;HPM_P1;HPM_P2
2023/05/23 00:02:18;;;;;;;4.60;2.83;;;;;;;18.43;74.53;98643.13;4881953;29;20206;-85
2023/05/23 00:04:44;;;;;;;7.23;3.17;;;;;;;18.35;74.65;98639.50;4881920;29;20211;-87
2023/05/23 00:07:09;;;;;;;4.70;2.63;;;;;;;18.35;74.37;98640.34;4881791;29;20180;-86
2023/05/23 00:09:35;;;;;;;4.23;2.27;;;;;;;18.41;74.03;98639.78;4881922;29;20264;-87
2023/05/23 00:12:01;;;;;;;4.60;2.70;;;;;;;18.39;74.09;98640.91;4881847;29;20194;-86
2023/05/23 00:14:30;;;;;;;5.50;2.73;;;;;;;18.41;74.19;98634.47;4881789;29;20253;-86
2023/05/23 00:16:55;;;;;;;4.80;2.50;;;;;;;18.43;74.06;98642.28;4881590;29;20204;-86
2023/05/23 00:19:21;;;;;;;5.27;2.57;;;;;;;18.46;73.78;98638.50;4881585;29;20186;-88
2023/05/23 00:21:47;;;;;;;5.97;2.90;;;;;;;18.42;74.32;98635.31;4881494;29;20183;-86
2023/05/23 00:24:17;;;;;;;9.03;2.90;;;;;;;18.33;73.99;98628.19;4881861;29;20207;-86
2023/05/23 00:26:43;;;;;;;7.40;2.87;;;;;;;18.22;74.71;98642.44;4896264;29;20622;-85
2023/05/23 00:29:14;;;;;;;4.60;3.10;;;;;;;18.20;75.52;98643.56;4893089;29;20272;-87
2023/05/23 00:31:40;;;;;;;4.80;2.70;;;;;;;18.41;74.50;98630.97;4881826;29;20196;-87
2023/05/23 00:34:05;;;;;;;5.10;2.53;;;;;;;18.51;73.75;98633.63;4881783;29;20260;-87
2023/05/23 00:36:35;;;;;;;6.83;2.70;;;;;;;18.48;74.11;98634.75;4896427;29;20627;-88
2023/05/23 00:39:01;;;;;;;6.00;2.70;;;;;;;18.50;73.69;98637.28;4881167;29;20185;-86
2023/05/23 00:41:29;;;;;;;6.57;2.37;;;;;;;18.58;73.21;98640.88;4881355;29;20243;-88
2023/05/23 00:43:57;;;;;;;5.93;2.67;;;;;;;18.65;72.85;98649.13;4895879;29;20262;-87
2023/05/23 00:46:22;;;;;;;5.77;3.03;;;;;;;18.85;71.82;98651.59;4896243;29;20611;-87
2023/05/23 00:48:48;;;;;;;6.17;2.50;;;;;;;18.64;72.18;98639.47;4881085;29;20199;-87
2023/05/23 00:51:14;;;;;;;6.27;2.70;;;;;;;18.55;72.26;98645.66;4881382;29;20180;-87
2023/05/23 00:53:42;;;;;;;4.50;2.60;;;;;;;18.42;72.56;98641.44;4881181;29;20548;-89
2023/05/23 00:56:08;;;;;;;8.07;3.10;;;;;;;18.53;72.63;98637.81;4881169;29;20714;-87
2023/05/23 00:58:33;;;;;;;4.17;2.23;;;;;;;18.62;71.89;98639.63;4880601;29;20257;-87
2023/05/23 01:00:59;;;;;;;6.77;2.93;;;;;;;18.49;71.99;98636.44;4894782;29;20690;-88
2023/05/23 01:03:27;;;;;;;8.70;2.97;;;;;;;18.52;71.86;98635.31;4880803;29;20650;-86
2023/05/23 01:05:54;;;;;;;5.60;2.70;;;;;;;18.58;71.42;98627.63;4880843;29;20199;-87
2023/05/23 01:08:23;;;;;;;5.23;2.60;;;;;;;18.77;70.60;98619.63;4879923;29;20192;-88
2023/05/23 01:10:50;;;;;;;5.97;3.07;;;;;;;18.74;70.60;98619.91;4881093;29;20536;-87
2023/05/23 01:13:44;;;;;;;4.77;2.30;;;;;;;18.77;70.18;98622.25;4880813;29;20278;-87
2023/05/23 01:16:20;;;;;;;7.20;3.00;;;;;;;18.80;70.21;98613.16;4880837;29;20263;-87
2023/05/23 01:19:13;;;;;;;4.80;2.53;;;;;;;18.83;69.45;98611.06;4880850;29;20251;-87
2023/05/23 01:21:39;;;;;;;5.10;3.00;;;;;;;18.72;70.08;98619.22;4880523;29;20180;-87
2023/05/23 01:24:05;;;;;;;7.20;2.60;;;;;;;18.63;70.65;98628.03;4895111;29;20211;-86
2023/05/23 01:27:02;;;;;;;5.67;2.53;;;;;;;18.44;71.31;98612.13;4880543;29;20614;-87
2023/05/23 01:29:32;;;;;;;8.10;2.50;;;;;;;18.46;70.62;98614.63;4879535;29;20632;-86
2023/05/23 01:31:59;;;;;;;3.37;2.07;;;;;;;18.34;71.31;98609.47;4880444;29;20275;-88
2023/05/23 01:34:25;;;;;;;4.70;2.60;;;;;;;18.06;71.68;98620.09;4879462;29;20207;-87
2023/05/23 01:36:56;;;;;;;3.53;1.97;;;;;;;18.17;72.40;98612.00;4880199;29;20246;-88
2023/05/23 01:39:22;;;;;;;4.37;2.23;;;;;;;18.16;71.85;98607.69;4880387;29;20187;-91
2023/05/23 01:41:50;;;;;;;4.10;2.27;;;;;;;18.12;72.09;98604.47;4880173;29;20179;-90
2023/05/23 01:44:16;;;;;;;5.07;2.50;;;;;;;18.19;72.38;98607.38;4880437;29;20281;-88
2023/05/23 01:46:43;;;;;;;4.43;2.70;;;;;;;18.20;71.85;98609.06;4880186;29;20193;-88
2023/05/23 01:49:11;;;;;;;5.27;2.33;;;;;;;18.35;71.09;98605.84;4879919;29;20206;-88
2023/05/23 01:51:38;;;;;;;6.47;2.40;;;;;;;18.45;71.13;98605.81;4879181;29;20631;-87
2023/05/23 01:54:04;;;;;;;5.30;2.57;;;;;;;18.46;70.67;98615.47;4878926;29;20194;-88
2023/05/23 01:56:30;;;;;;;6.40;2.60;;;;;;;18.45;70.65;98613.78;4880444;29;20544;-87
2023/05/23 01:58:56;;;;;;;8.77;2.80;;;;;;;18.48;70.51;98613.53;4880028;29;20246;-88
2023/05/23 02:01:21;;;;;;;5.03;2.50;;;;;;;18.48;70.48;98624.16;4879773;29;20228;-87
2023/05/23 02:03:48;;;;;;;5.50;2.70;;;;;;;18.43;70.13;98615.75;4879794;29;20176;-88
2023/05/23 02:06:15;;;;;;;5.20;2.43;;;;;;;18.46;70.38;98620.78;4880297;29;20199;-87
2023/05/23 02:08:41;;;;;;;6.13;2.77;;;;;;;18.56;70.00;98626.09;4894461;29;20183;-87
2023/05/23 02:11:07;;;;;;;4.13;2.37;;;;;;;18.55;69.67;98622.63;4879150;29;20230;-88
2023/05/23 02:13:33;;;;;;;4.77;2.33;;;;;;;18.55;69.77;98625.28;4879751;29;20566;-89
2023/05/23 02:16:02;;;;;;;6.20;2.93;;;;;;;18.34;70.29;98627.22;4878782;29;20227;-88
2023/05/23 02:18:28;;;;;;;4.20;2.40;;;;;;;18.46;70.32;98633.19;4879846;29;20192;-88
2023/05/23 02:20:57;;;;;;;4.83;2.37;;;;;;;18.42;70.14;98635.31;4879414;29;20188;-88
2023/05/23 02:23:23;;;;;;;5.43;2.37;;;;;;;18.37;69.71;98635.72;4894262;29;20649;-89
2023/05/23 02:25:48;;;;;;;6.77;2.70;;;;;;;18.30;70.35;98631.13;4879518;29;20214;-89
2023/05/23 02:28:14;;;;;;;5.33;2.60;;;;;;;17.70;72.35;98627.78;4879525;29;20639;-89
2023/05/23 02:30:39;;;;;;;4.93;2.70;;;;;;;17.69;72.90;98631.38;4893899;29;20198;-88
2023/05/23 02:33:05;;;;;;;5.33;2.67;;;;;;;17.89;72.07;98631.41;4879500;29;20561;-88
2023/05/23 02:35:31;;;;;;;3.03;2.03;;;;;;;17.90;72.36;98638.41;4879639;29;20186;-88
2023/05/23 02:37:57;;;;;;;5.63;1.93;;;;;;;17.91;71.65;98630.31;4879719;29;20191;-88
2023/05/23 02:40:22;;;;;;;6.13;2.63;;;;;;;17.91;71.93;98634.75;4879432;29;20247;-89
2023/05/23 02:42:49;;;;;;;5.60;2.43;;;;;;;17.92;71.93;98632.00;4879559;29;20638;-88
2023/05/23 02:45:15;;;;;;;4.83;2.60;;;;;;;17.93;71.81;98632.78;4879429;29;20227;-88
2023/05/23 02:47:41;;;;;;;6.93;2.53;;;;;;;17.91;71.53;98630.31;4880034;29;20222;-88
2023/05/23 02:50:07;;;;;;;8.93;2.73;;;;;;;17.81;71.70;98634.75;4878692;29;20199;-89
2023/05/23 02:52:32;;;;;;;4.30;2.23;;;;;;;17.79;71.85;98636.72;4879624;29;20735;-88
2023/05/23 02:54:57;;;;;;;3.67;2.30;;;;;;;17.69;72.39;98639.34;4879391;29;20180;-88
2023/05/23 02:57:23;;;;;;;4.30;2.13;;;;;;;17.57;72.91;98642.25;4879428;29;20184;-89
2023/05/23 02:59:48;;;;;;;3.67;2.33;;;;;;;17.57;73.15;98637.78;4877692;29;20191;-88
2023/05/23 03:02:14;;;;;;;4.93;2.30;;;;;;;17.62;73.10;98640.88;4879682;29;20180;-88
2023/05/23 03:04:40;;;;;;;4.77;2.57;;;;;;;17.69;72.02;98636.69;4879837;29;20298;-89
2023/05/23 03:07:05;;;;;;;3.93;2.00;;;;;;;17.56;72.33;98641.41;4879304;29;20188;-88
2023/05/23 03:09:31;;;;;;;5.03;2.30;;;;;;;17.79;71.60;98642.84;4879119;29;20248;-88
2023/05/23 03:11:56;;;;;;;6.50;3.10;;;;;;;17.67;71.74;98638.66;4878657;29;20183;-88
2023/05/23 03:14:22;;;;;;;4.23;1.87;;;;;;;17.58;72.32;98636.00;4879288;29;20211;-90
2023/05/23 03:16:47;;;;;;;3.70;1.57;;;;;;;17.58;72.68;98638.63;4879262;29;20188;-88
2023/05/23 03:19:13;;;;;;;4.10;2.20;;;;;;;17.56;72.74;98636.09;4878315;29;20206;-88
2023/05/23 03:21:38;;;;;;;5.83;2.23;;;;;;;17.58;72.44;98634.16;4879079;29;20630;-88
2023/05/23 03:24:04;;;;;;;4.03;2.07;;;;;;;17.64;72.03;98632.75;4882015;29;20190;-88
2023/05/23 03:26:29;;;;;;;4.03;1.90;;;;;;;17.61;72.54;98639.19;4881626;29;20187;-88
2023/05/23 03:28:55;;;;;;;5.00;2.10;;;;;;;17.59;72.20;98640.28;4883034;29;20180;-88
2023/05/23 03:31:20;;;;;;;3.43;1.77;;;;;;;17.78;71.89;98638.53;4882817;29;20208;-88
2023/05/23 03:33:46;;;;;;;3.57;2.10;;;;;;;17.84;71.35;98641.59;4897628;29;20184;-87
2023/05/23 03:36:11;;;;;;;8.23;1.97;;;;;;;17.84;71.44;98645.09;4897480;29;20206;-88
2023/05/23 03:38:37;;;;;;;6.03;3.07;;;;;;;17.92;70.97;98652.34;4881682;29;20187;-88
2023/05/23 03:41:02;;;;;;;4.13;1.60;;;;;;;17.82;71.30;98648.88;4882864;29;20183;-88
2023/05/23 03:43:27;;;;;;;6.17;2.23;;;;;;;17.78;71.13;98651.78;4882397;29;20187;-88
2023/05/23 03:45:53;;;;;;;3.13;1.93;;;;;;;17.85;71.04;98657.34;4897053;29;20239;-88
2023/05/23 03:48:18;;;;;;;4.47;2.30;;;;;;;17.73;71.86;98654.00;4882101;29;20291;-88
2023/05/23 03:50:44;;;;;;;4.60;1.90;;;;;;;17.94;71.40;98658.34;4881438;29;20191;-88
2023/05/23 03:53:09;;;;;;;3.47;1.97;;;;;;;17.99;70.63;98648.16;4881182;29;20197;-87
2023/05/23 03:55:35;;;;;;;4.10;2.20;;;;;;;18.01;70.40;98651.50;4881062;29;20184;-89
2023/05/23 03:58:00;;;;;;;3.43;1.90;;;;;;;17.80;71.20;98657.78;4881221;29;20183;-87
2023/05/23 04:00:26;;;;;;;3.13;1.53;;;;;;;17.93;70.35;98659.31;4881315;29;20183;-88
2023/05/23 04:02:52;;;;;;;4.23;1.87;;;;;;;17.76;70.68;98658.19;4881056;29;20191;-88
2023/05/23 04:05:17;;;;;;;3.67;1.87;;;;;;;17.85;70.82;98664.47;4881010;29;20569;-88
2023/05/23 04:07:44;;;;;;;3.53;1.80;;;;;;;17.98;70.62;98657.09;4881086;29;20191;-88
2023/05/23 04:10:09;;;;;;;9.47;2.07;;;;;;;18.06;69.85;98659.88;4881070;29;20183;-88
2023/05/23 04:12:36;;;;;;;6.67;2.13;;;;;;;18.03;70.09;98655.69;4880975;29;20557;-89
2023/05/23 04:15:02;;;;;;;3.97;1.87;;;;;;;18.11;69.69;98662.94;4881003;29;20263;-88
2023/05/23 04:17:29;;;;;;;7.50;1.97;;;;;;;17.91;70.25;98661.28;4881456;29;20179;-87
2023/05/23 04:19:55;;;;;;;3.13;1.67;;;;;;;18.08;69.87;98658.75;4880885;29;20194;-88
2023/05/23 04:22:20;;;;;;;6.10;2.00;;;;;;;18.01;69.68;98662.13;4879905;29;20187;-89
2023/05/23 04:24:46;;;;;;;2.90;1.70;;;;;;;18.17;69.41;98662.41;4881026;29;20350;-89
2023/05/23 04:27:12;;;;;;;3.53;1.83;;;;;;;18.03;69.24;98661.00;4880778;29;20514;-89
2023/05/23 04:29:38;;;;;;;6.70;1.77;;;;;;;18.16;68.84;98666.06;4880977;29;20184;-88
2023/05/23 04:32:05;;;;;;;3.77;1.70;;;;;;;18.23;68.95;98673.31;4881071;29;20262;-88
2023/05/23 04:34:32;;;;;;;4.23;2.23;;;;;;;18.23;68.45;98668.00;4880400;29;20203;-88
2023/05/23 04:37:01;;;;;;;3.70;1.80;;;;;;;18.39;68.71;98672.75;4880665;29;20200;-88
2023/05/23 04:39:26;;;;;;;5.33;2.17;;;;;;;18.35;68.34;98677.50;4895470;29;20534;-88
2023/05/23 04:41:53;;;;;;;3.23;1.80;;;;;;;18.47;68.35;98672.03;4880507;29;20191;-88
2023/05/23 04:44:19;;;;;;;7.93;2.00;;;;;;;18.51;68.24;98666.34;4880399;29;20326;-88
2023/05/23 04:46:44;;;;;;;3.27;1.73;;;;;;;18.61;68.29;98679.59;4880462;29;20234;-89
2023/05/23 04:50:36;;;;;;;4.00;1.93;;;;;;;18.54;68.31;98678.47;5090766;27;20556;-88
2023/05/23 04:53:02;;;;;;;4.93;2.80;;;;;;;18.67;68.05;98679.88;5090538;28;20615;-88
2023/05/23 04:55:27;;;;;;;5.70;2.33;;;;;;;18.72;67.75;98684.75;5090685;28;20180;-88
2023/05/23 04:57:53;;;;;;;3.97;2.00;;;;;;;18.87;67.30;98678.84;5090702;28;20538;-88
2023/05/23 05:00:19;;;;;;;7.53;2.30;;;;;;;19.08;67.21;98681.28;5090799;28;20169;-88
2023/05/23 05:02:44;;;;;;;4.47;2.27;;;;;;;19.21;66.48;98675.66;5090585;28;20172;-88
2023/05/23 05:05:10;;;;;;;3.93;2.00;;;;;;;19.29;66.13;98678.41;5069882;28;20626;-88
2023/05/23 05:07:35;;;;;;;5.47;2.40;;;;;;;19.36;66.02;98676.88;5070676;28;20554;-88
2023/05/23 05:10:02;;;;;;;4.87;2.53;;;;;;;19.44;65.44;98683.13;5089167;28;20197;-87
2023/05/23 05:12:27;;;;;;;2.67;1.47;;;;;;;19.35;65.60;98675.19;5089784;28;20277;-89
2023/05/23 05:14:52;;;;;;;3.67;2.00;;;;;;;19.23;65.45;98686.97;5089739;28;20730;-88
2023/05/23 05:17:18;;;;;;;4.20;1.80;;;;;;;19.31;65.21;98687.09;5089355;28;20662;-88
2023/05/23 05:19:45;;;;;;;4.73;2.10;;;;;;;19.30;65.79;98688.06;5072774;28;20256;-88
2023/05/23 05:22:11;;;;;;;5.80;1.63;;;;;;;19.26;66.24;98692.00;5076355;28;20191;-87
2023/05/23 05:24:36;;;;;;;3.27;1.83;;;;;;;19.44;66.92;98690.28;5076396;28;20565;-88
2023/05/23 05:27:02;;;;;;;3.00;1.50;;;;;;;19.51;66.34;98694.03;5074729;28;20234;-88
2023/05/23 05:29:28;;;;;;;4.63;2.50;;;;;;;19.37;66.32;98699.78;5070107;28;20208;-87
2023/05/23 05:31:53;;;;;;;3.23;2.03;;;;;;;19.43;66.91;98700.09;5085855;28;20664;-88
2023/05/23 05:34:19;;;;;;;4.60;2.00;;;;;;;19.54;66.58;98704.38;5089926;28;20259;-88
2023/05/23 05:36:46;;;;;;;3.87;2.03;;;;;;;19.69;66.63;98702.88;5075956;28;20182;-88
2023/05/23 05:39:13;;;;;;;4.03;2.43;;;;;;;19.81;66.10;98704.34;5076070;28;20638;-88
2023/05/23 05:41:39;;;;;;;6.40;1.80;;;;;;;19.66;65.62;98703.19;5069849;28;20697;-88
2023/05/23 05:44:05;;;;;;;4.53;2.80;;;;;;;19.69;66.79;98713.53;5068597;28;20186;-88
2023/05/23 05:46:30;;;;;;;5.90;2.13;;;;;;;19.79;66.67;98708.97;5084058;28;20177;-87
2023/05/23 05:48:56;;;;;;;3.87;2.07;;;;;;;19.95;65.78;98711.81;5089225;28;20240;-87
2023/05/23 05:51:21;;;;;;;4.17;2.23;;;;;;;20.19;65.60;98712.09;5089612;28;20261;-87
2023/05/23 05:53:48;;;;;;;5.07;2.23;;;;;;;20.27;64.78;98716.69;5089903;28;20219;-87
2023/05/23 05:56:13;;;;;;;7.87;2.20;;;;;;;20.15;64.68;98721.34;5089547;28;20176;-87
2023/05/23 05:58:39;;;;;;;3.37;1.97;;;;;;;20.57;64.99;98718.94;5089498;28;20229;-87
2023/05/23 06:01:04;;;;;;;3.23;2.00;;;;;;;20.73;64.02;98718.25;5080981;28;20188;-88
2023/05/23 06:03:31;;;;;;;7.83;2.43;;;;;;;21.00;63.92;98723.44;5075147;28;20210;-88
2023/05/23 06:05:56;;;;;;;4.77;2.50;;;;;;;21.22;63.26;98714.97;5055011;28;20228;-87
2023/05/23 06:08:22;;;;;;;4.43;2.30;;;;;;;21.12;62.51;98716.88;5055831;28;20201;-87
2023/05/23 06:10:48;;;;;;;5.20;1.80;;;;;;;21.42;62.60;98711.09;5059352;28;20188;-87
2023/05/23 06:13:13;;;;;;;5.47;2.43;;;;;;;21.55;61.12;98715.97;5074779;28;20176;-88
2023/05/23 06:15:38;;;;;;;6.60;2.30;;;;;;;21.54;60.33;98716.94;5075710;28;20622;-88
2023/05/23 06:18:04;;;;;;;3.97;2.10;;;;;;;21.48;59.17;98722.94;5075699;28;20207;-87
2023/05/23 06:20:29;;;;;;;7.27;2.20;;;;;;;21.59;59.24;98713.81;5075627;28;20248;-88
2023/05/23 06:22:55;;;;;;;5.17;2.40;;;;;;;21.64;58.88;98716.84;5075373;28;20246;-89
2023/05/23 06:25:20;;;;;;;5.33;1.83;;;;;;;21.33;59.58;98725.34;5074874;28;20204;-88
2023/05/23 06:27:46;;;;;;;3.97;1.93;;;;;;;21.52;59.61;98718.09;5075262;28;20173;-88
2023/05/23 06:30:12;;;;;;;4.40;2.00;;;;;;;21.67;58.51;98711.19;5054409;28;20201;-88
2023/05/23 06:32:37;;;;;;;3.60;2.10;;;;;;;21.42;58.87;98708.41;5054479;28;20192;-89
2023/05/23 06:35:03;;;;;;;5.53;1.77;;;;;;;21.53;60.01;98709.13;5054594;28;20194;-88
2023/05/23 06:37:29;;;;;;;5.63;2.33;;;;;;;21.83;58.64;98701.41;5054242;28;20270;-89
2023/05/23 06:39:54;;;;;;;3.53;1.33;;;;;;;21.97;58.00;98703.50;5060035;28;20173;-88
2023/05/23 06:42:19;;;;;;;3.97;2.00;;;;;;;22.34;56.63;98697.72;5075181;28;20679;-88
2023/05/23 06:44:45;;;;;;;3.20;1.60;;;;;;;22.61;56.81;98702.72;5075197;28;20611;-88
2023/05/23 06:47:10;;;;;;;3.87;2.00;;;;;;;22.42;56.48;98713.75;5075131;28;20180;-88
2023/05/23 06:49:36;;;;;;;3.77;2.10;;;;;;;22.75;57.22;98711.09;5073862;28;20229;-87
2023/05/23 06:52:01;;;;;;;5.50;1.67;;;;;;;23.13;57.56;98703.22;5074918;28;20191;-88
2023/05/23 06:54:27;;;;;;;4.83;2.57;;;;;;;23.25;53.95;98701.00;5064967;28;20566;-88
2023/05/23 06:56:52;;;;;;;4.33;2.43;;;;;;;23.40;53.24;98693.16;5069969;28;20185;-89
2023/05/23 06:59:18;;;;;;;4.03;1.93;;;;;;;23.62;53.74;98695.06;5073938;28;20634;-89
2023/05/23 07:01:44;;;;;;;7.43;1.90;;;;;;;23.72;52.08;98693.84;5058742;28;20247;-88
2023/05/23 07:04:11;;;;;;;3.90;2.07;;;;;;;23.94;52.45;98696.75;5073065;28;20185;-89
2023/05/23 07:06:38;;;;;;;3.87;2.07;;;;;;;24.06;49.23;98680.13;5074748;28;20177;-89
2023/05/23 07:09:03;;;;;;;3.93;1.87;;;;;;;23.84;49.42;98689.81;5067745;28;20204;-89
2023/05/23 07:11:29;;;;;;;3.83;1.97;;;;;;;23.75;50.30;98688.16;5053375;28;20182;-88
2023/05/23 07:13:54;;;;;;;4.77;1.80;;;;;;;23.89;51.35;98688.44;5052975;28;20182;-88
2023/05/23 07:16:20;;;;;;;6.60;2.43;;;;;;;24.07;51.54;98694.34;5070139;28;20188;-89
2023/05/23 07:18:45;;;;;;;4.47;2.20;;;;;;;24.09;50.15;98687.84;5074504;28;20626;-88
2023/05/23 07:21:11;;;;;;;4.17;2.10;;;;;;;24.03;50.44;98690.38;5074373;28;20283;-88
2023/05/23 07:23:36;;;;;;;4.40;2.47;;;;;;;24.05;52.17;98693.69;5074273;28;20195;-88
2023/05/23 07:26:02;;;;;;;6.90;2.27;;;;;;;24.06;50.56;98696.19;5073368;28;20271;-88
2023/05/23 07:28:28;;;;;;;3.90;2.40;;;;;;;24.28;52.05;98690.06;5074203;28;20169;-88
2023/05/23 07:30:57;;;;;;;4.70;2.30;;;;;;;24.39;50.24;98696.84;5073305;28;20541;-89
2023/05/23 07:33:22;;;;;;;6.80;2.30;;;;;;;24.47;50.55;98699.47;5072105;28;20168;-88
2023/05/23 07:35:48;;;;;;;3.93;2.03;;;;;;;24.60;51.26;98688.97;5064494;28;20686;-88
2023/05/23 07:38:13;;;;;;;3.27;2.10;;;;;;;24.53;51.30;98697.94;5054297;28;20200;-88
2023/05/23 07:40:39;;;;;;;5.07;2.33;;;;;;;24.42;51.70;98697.31;5066085;28;20640;-88
2023/05/23 07:43:04;;;;;;;4.60;2.50;;;;;;;24.57;53.25;98693.88;5073892;28;20187;-88
2023/05/23 07:45:30;;;;;;;8.57;2.37;;;;;;;24.69;49.47;98698.59;5073986;28;20179;-89
2023/05/23 07:47:55;;;;;;;4.80;2.63;;;;;;;24.76;51.06;98693.38;5073732;28;20188;-88
2023/05/23 07:50:21;;;;;;;4.27;2.07;;;;;;;24.81;50.48;98702.56;5058204;28;20224;-89
2023/05/23 07:52:46;;;;;;;4.30;2.30;;;;;;;24.81;49.33;98702.56;5065133;28;20189;-88
2023/05/23 07:55:12;;;;;;;5.03;2.13;;;;;;;24.64;48.89;98710.88;5064662;28;20185;-90
2023/05/23 07:57:37;;;;;;;6.43;2.57;;;;;;;24.50;50.23;98699.13;5053801;28;20173;-88
2023/05/23 08:00:05;;;;;;;3.13;1.73;;;;;;;24.50;51.28;98704.47;5054010;28;20170;-88
2023/05/23 08:02:30;;;;;;;4.43;2.00;;;;;;;24.43;50.67;98703.50;5052624;28;20201;-88
2023/05/23 08:04:56;;;;;;;4.03;2.23;;;;;;;24.43;50.32;98709.69;5053666;28;20178;-89
2023/05/23 08:07:22;;;;;;;5.30;2.43;;;;;;;24.42;51.01;98707.22;5060539;28;20172;-89
2023/05/23 08:09:47;;;;;;;3.63;2.03;;;;;;;24.41;51.78;98703.69;5073498;28;20254;-88
2023/05/23 08:12:13;;;;;;;7.30;2.83;;;;;;;24.36;51.63;98702.56;5073491;28;20173;-88
2023/05/23 08:14:38;;;;;;;4.97;2.37;;;;;;;24.48;52.13;98700.28;5073681;28;20208;-88
2023/05/23 08:17:04;;;;;;;7.80;2.60;;;;;;;24.53;52.53;98697.94;5073322;28;20203;-88
2023/05/23 08:19:29;;;;;;;3.93;2.03;;;;;;;24.68;51.69;98702.31;5073338;28;20169;-89
2023/05/23 08:21:55;;;;;;;3.93;1.87;;;;;;;24.83;51.55;98689.81;5073365;28;20184;-88
2023/05/23 08:24:20;;;;;;;5.97;2.47;;;;;;;24.90;50.06;98690.75;5073726;28;20188;-88
2023/05/23 08:26:46;;;;;;;4.53;2.27;;;;;;;25.08;48.47;98697.63;5073165;28;20181;-89
2023/05/23 08:29:12;;;;;;;5.53;2.30;;;;;;;25.25;49.44;98691.91;5073256;28;20666;-89
2023/05/23 08:31:37;;;;;;;7.30;2.37;;;;;;;25.46;49.43;98689.34;5073556;28;20542;-88
2023/05/23 08:34:03;;;;;;;5.97;2.50;;;;;;;25.70;47.70;98688.22;5072141;28;20250;-89
2023/05/23 08:36:29;;;;;;;4.63;2.33;;;;;;;25.52;46.37;98685.09;5073192;28;20245;-88
2023/05/23 08:38:54;;;;;;;6.37;2.23;;;;;;;25.76;47.38;98692.03;5073740;28;20245;-89
2023/05/23 08:41:22;;;;;;;4.17;2.07;;;;;;;26.02;48.67;98695.84;5072457;28;20601;-89
2023/05/23 08:43:48;;;;;;;4.90;2.00;;;;;;;26.34;48.63;98691.03;5068490;28;20181;-89
2023/05/23 08:46:14;;;;;;;6.43;2.50;;;;;;;26.62;46.19;98684.72;5070306;28;20195;-89
2023/05/23 08:48:42;;;;;;;4.40;2.37;;;;;;;26.83;44.33;98686.59;5055012;28;20838;-89
2023/05/23 08:51:12;;;;;;;5.22;2.35;;;;;;;26.97;44.30;98682.13;5069410;28;20273;-88
2023/05/23 08:53:41;;;;;;;3.83;2.13;;;;;;;27.23;44.91;98682.31;5052913;28;20185;-90
2023/05/23 08:56:08;;;;;;;5.20;2.20;;;;;;;27.44;43.59;98683.09;5055304;28;20180;-89
2023/05/23 08:58:34;;;;;;;5.00;2.97;;;;;;;27.57;44.95;98681.53;5065307;28;20193;-89
2023/05/23 09:01:03;;;;;;;3.90;2.28;;;;;;;27.42;44.94;98673.56;5052574;28;20255;-90
2023/05/23 09:03:29;;;;;;;4.60;2.10;;;;;;;27.30;43.25;98678.66;5051764;28;20192;-89
2023/05/23 09:05:57;;;;;;;3.88;2.15;;;;;;;27.20;42.91;98682.72;5051441;28;20189;-91
2023/05/23 09:08:24;;;;;;;5.85;2.38;;;;;;;27.21;43.42;98684.38;5052162;28;20177;-89
2023/05/23 09:10:50;;;;;;;5.18;1.90;;;;;;;27.17;43.82;98683.13;5052808;28;20213;-90
2023/05/23 09:13:16;;;;;;;3.53;2.10;;;;;;;27.09;43.28;98676.03;5055757;28;20661;-90
2023/05/23 09:16:23;;;;;;;3.80;2.27;;;;;;;27.10;44.12;98674.97;5052404;28;20177;-89
2023/05/23 09:18:49;;;;;;;4.00;2.10;;;;;;;27.02;44.36;98677.81;5050945;28;20249;-90
2023/05/23 09:21:19;;;;;;;4.87;2.53;;;;;;;27.07;44.34;98669.97;5054098;28;20280;-90
2023/05/23 09:23:49;;;;;;;4.47;2.70;;;;;;;27.07;43.44;98680.75;5054338;28;20208;-91
2023/05/23 09:26:15;;;;;;;5.00;2.33;;;;;;;27.13;44.18;98671.91;5056420;28;20184;-89
2023/05/23 09:28:42;;;;;;;4.80;1.90;;;;;;;27.33;44.67;98666.66;5052138;28;20209;-89
2023/05/23 09:31:13;;;;;;;3.20;1.83;;;;;;;27.65;43.20;98670.56;5053678;28;20648;-90
2023/05/23 09:33:45;;;;;;;4.68;2.10;;;;;;;27.82;41.37;98666.50;5054948;28;20738;-89
2023/05/23 09:36:17;;;;;;;4.28;1.90;;;;;;;27.97;40.23;98669.84;5054510;28;20188;-90
2023/05/23 09:38:45;;;;;;;4.97;2.30;;;;;;;28.10;39.75;98669.09;5073691;28;20631;-90
2023/05/23 09:41:11;;;;;;;5.70;2.20;;;;;;;28.23;41.08;98669.97;5076130;28;20182;-89
2023/05/23 09:43:48;;;;;;;4.25;1.48;;;;;;;28.52;39.52;98668.75;5075708;28;20635;-89
2023/05/23 09:46:19;;;;;;;4.53;1.70;;;;;;;28.53;37.68;98671.28;5075760;28;20173;-90
2023/05/23 09:49:43;;;;;;;5.57;2.22;;;;;;;28.71;40.59;98668.00;5058306;28;20292;-90
2023/05/23 09:52:14;;;;;;;4.30;2.17;;;;;;;28.53;38.91;98670.44;5054852;28;20584;-90
2023/05/23 09:54:48;;;;;;;2.72;1.50;;;;;;;28.47;38.98;98666.69;5060918;28;20188;-91
2023/05/23 09:57:18;;;;;;;3.83;1.80;;;;;;;28.24;39.01;98663.56;5075950;28;20172;-89
2023/05/23 10:00:03;;;;;;;3.03;1.92;;;;;;;28.35;38.58;98668.34;5075147;28;20244;-90
2023/05/23 10:03:09;;;;;;;6.13;2.05;;;;;;;28.17;39.77;98667.28;5075017;28;20184;-90
2023/05/23 10:05:37;;;;;;;4.35;1.92;;;;;;;28.11;39.54;98666.22;5075328;28;20526;-90
2023/05/23 10:08:21;;;;;;;5.13;2.00;;;;;;;27.82;40.16;98667.34;5060957;28;20192;-88
2023/05/23 10:11:13;;;;;;;3.35;1.77;;;;;;;27.76;40.34;98667.28;5064637;28;20242;-89
2023/05/23 10:13:52;;;;;;;4.50;1.80;;;;;;;27.89;40.70;98667.34;5059945;28;20350;-88
2023/05/23 10:16:22;;;;;;;5.65;2.50;;;;;;;27.82;40.83;98661.94;5054156;28;20195;-90
2023/05/23 10:18:55;;;;;;;4.22;2.05;;;;;;;27.84;41.70;98669.81;5054910;28;20189;-89
2023/05/23 10:21:31;;;;;;;3.92;1.90;;;;;;;27.93;39.62;98666.75;5055581;28;20172;-90
2023/05/23 10:23:59;;;;;;;3.88;2.15;;;;;;;27.99;40.71;98663.25;5055421;28;20188;-89
2023/05/23 10:26:26;;;;;;;11.90;2.60;;;;;;;27.64;41.97;98664.34;5056219;28;20173;-89
2023/05/23 10:28:53;;;;;;;3.78;1.55;;;;;;;27.67;41.97;98663.13;5075394;28;20208;-90
2023/05/23 10:31:20;;;;;;;3.42;1.90;;;;;;;27.67;42.16;98663.13;5075308;28;20643;-89
2023/05/23 10:33:54;;;;;;;3.70;1.95;;;;;;;27.44;41.20;98658.03;5074506;28;20567;-89
2023/05/23 10:36:32;;;;;;;3.53;1.67;;;;;;;27.57;42.09;98659.97;5075697;28;20595;-89
2023/05/23 10:39:07;;;;;;;4.00;1.73;;;;;;;27.76;40.45;98660.06;5062012;28;20177;-90
2023/05/23 10:41:54;;;;;;;2.50;1.60;;;;;;;27.83;41.53;98662.78;5055189;28;20181;-89
2023/05/23 10:44:29;;;;;;;3.90;2.03;;;;;;;27.61;42.69;98658.53;5054289;28;20170;-90
2023/05/23 10:47:07;;;;;;;5.63;2.40;;;;;;;27.19;42.41;98664.91;5060465;28;20212;-89
2023/05/23 10:49:42;;;;;;;4.88;1.90;;;;;;;27.22;43.22;98662.66;5073700;28;20220;-89
2023/05/23 10:52:15;;;;;;;4.00;1.90;;;;;;;27.37;42.02;98662.53;5074172;28;20626;-91
2023/05/23 10:54:45;;;;;;;6.63;2.90;;;;;;;27.41;41.78;98655.75;5073618;28;20272;-89
2023/05/23 10:57:15;;;;;;;5.75;2.50;;;;;;;27.61;42.20;98654.00;5072038;28;20551;-90
2023/05/23 10:59:41;;;;;;;5.68;1.98;;;;;;;27.75;41.79;98660.25;5072574;28;20165;-89
2023/05/23 11:02:18;;;;;;;8.02;1.92;;;;;;;27.91;41.11;98654.50;5071873;28;20600;-90
2023/05/23 11:04:44;;;;;;;4.70;2.67;;;;;;;28.08;41.71;98650.44;5072381;28;20263;-89
2023/05/23 11:07:29;;;;;;;4.53;2.22;;;;;;;28.06;41.49;98649.00;5072733;28;20252;-90
2023/05/23 11:10:09;;;;;;;4.53;2.50;;;;;;;28.01;42.01;98644.19;5073032;28;20196;-89
2023/05/23 11:12:41;;;;;;;6.30;2.13;;;;;;;28.09;42.52;98652.13;5073776;28;20271;-90
2023/05/23 11:15:19;;;;;;;5.13;1.60;;;;;;;28.10;42.61;98642.16;5075157;28;20260;-89
2023/05/23 11:17:52;;;;;;;3.50;1.90;;;;;;;28.38;42.53;98643.66;5074319;28;20253;-90
2023/05/23 11:20:25;;;;;;;5.18;1.85;;;;;;;28.61;41.42;98635.19;5073687;28;20165;-89
2023/05/23 11:22:59;;;;;;;6.82;2.08;;;;;;;28.73;40.82;98638.94;5074469;28;20169;-90
2023/05/23 11:25:54;;;;;;;3.83;1.80;;;;;;;28.64;39.59;98641.00;5073524;28;20650;-90
2023/05/23 11:28:20;;;;;;;3.40;1.65;;;;;;;28.62;39.42;98648.47;5073786;28;20201;-89
2023/05/23 11:31:04;;;;;;;4.85;1.85;;;;;;;28.58;40.41;98636.41;5064878;28;20213;-89
2023/05/23 11:33:31;;;;;;;3.75;1.70;;;;;;;28.87;39.55;98640.59;5055015;28;20260;-91
2023/05/23 11:36:08;;;;;;;3.25;1.75;;;;;;;29.09;38.91;98638.47;5052999;28;20185;-90
2023/05/23 11:38:59;;;;;;;4.30;1.75;;;;;;;29.30;37.14;98640.94;5054087;28;20180;-90
2023/05/23 11:41:26;;;;;;;4.05;1.38;;;;;;;29.53;37.16;98641.31;5069796;28;20185;-90